sensor_id;sensor_type;location;lat;lon;timestamp;P1;durP1;ratioP1;P2;durP2;ratioP2
69280;SDS011;56392;51.082;17.080;2022-08-19T00:01:32;17.10;;;9.55;;
69280;SDS011;56392;51.082;17.080;2022-08-19T00:06:39;17.10;;;9.23;;
69280;SDS011;56392;51.082;17.080;2022-08-19T00:11:43;14.40;;;9.07;;
69280;SDS011;56392;51.082;17.080;2022-08-19T00:16:47;16.98;;;9.35;;
69280;SDS011;56392;51.082;17.080;2022-08-19T00:21:51;14.98;;;9.13;;
69280;SDS011;56392;51.082;17.080;2022-08-19T00:26:55;15.07;;;8.83;;
69280;SDS011;56392;51.082;17.080;2022-08-19T00:31:58;14.40;;;8.65;;
69280;SDS011;56392;51.082;17.080;2022-08-19T00:37:02;12.10;;;9.00;;
69280;SDS011;56392;51.082;17.080;2022-08-19T00:42:05;13.70;;;8.82;;
69280;SDS011;56392;51.082;17.080;2022-08-19T00:47:08;14.40;;;9.33;;
69280;SDS011;56392;51.082;17.080;2022-08-19T00:52:14;15.35;;;8.68;;
69280;SDS011;56392;51.082;17.080;2022-08-19T00:57:22;13.32;;;8.60;;
69280;SDS011;56392;51.082;17.080;2022-08-19T01:02:29;16.57;;;9.50;;
69280;SDS011;56392;51.082;17.080;2022-08-19T01:07:33;14.43;;;8.82;;
69280;SDS011;56392;51.082;17.080;2022-08-19T01:12:37;14.73;;;8.75;;
69280;SDS011;56392;51.082;17.080;2022-08-19T01:17:41;13.57;;;8.57;;
69280;SDS011;56392;51.082;17.080;2022-08-19T01:22:47;16.10;;;8.45;;
69280;SDS011;56392;51.082;17.080;2022-08-19T01:27:51;20.63;;;9.02;;
69280;SDS011;56392;51.082;17.080;2022-08-19T01:32:54;14.77;;;8.77;;
69280;SDS011;56392;51.082;17.080;2022-08-19T01:38:00;13.63;;;8.00;;
69280;SDS011;56392;51.082;17.080;2022-08-19T01:43:08;13.13;;;8.32;;
69280;SDS011;56392;51.082;17.080;2022-08-19T01:48:10;13.98;;;8.48;;
69280;SDS011;56392;51.082;17.080;2022-08-19T01:53:15;13.47;;;8.30;;
69280;SDS011;56392;51.082;17.080;2022-08-19T01:58:18;16.33;;;8.60;;
69280;SDS011;56392;51.082;17.080;2022-08-19T02:03:23;13.02;;;8.13;;
69280;SDS011;56392;51.082;17.080;2022-08-19T02:08:27;13.03;;;8.47;;
69280;SDS011;56392;51.082;17.080;2022-08-19T02:13:30;13.75;;;8.23;;
69280;SDS011;56392;51.082;17.080;2022-08-19T02:18:33;13.07;;;8.52;;
69280;SDS011;56392;51.082;17.080;2022-08-19T02:23:37;14.35;;;8.35;;
69280;SDS011;56392;51.082;17.080;2022-08-19T02:28:40;12.87;;;8.90;;
69280;SDS011;56392;51.082;17.080;2022-08-19T02:33:43;15.50;;;8.57;;
69280;SDS011;56392;51.082;17.080;2022-08-19T02:38:48;15.23;;;8.98;;
69280;SDS011;56392;51.082;17.080;2022-08-19T02:43:51;15.97;;;8.90;;
69280;SDS011;56392;51.082;17.080;2022-08-19T02:48:55;13.50;;;8.73;;
69280;SDS011;56392;51.082;17.080;2022-08-19T02:54:00;13.93;;;8.88;;
69280;SDS011;56392;51.082;17.080;2022-08-19T02:59:03;14.57;;;8.70;;
69280;SDS011;56392;51.082;17.080;2022-08-19T03:04:10;16.17;;;9.52;;
69280;SDS011;56392;51.082;17.080;2022-08-19T03:09:15;14.98;;;9.07;;
69280;SDS011;56392;51.082;17.080;2022-08-19T03:14:18;16.10;;;9.43;;
69280;SDS011;56392;51.082;17.080;2022-08-19T03:19:21;14.83;;;9.10;;
69280;SDS011;56392;51.082;17.080;2022-08-19T03:24:25;15.90;;;9.18;;
69280;SDS011;56392;51.082;17.080;2022-08-19T03:29:28;17.27;;;9.82;;
69280;SDS011;56392;51.082;17.080;2022-08-19T03:34:33;15.37;;;9.73;;
69280;SDS011;56392;51.082;17.080;2022-08-19T03:39:39;15.75;;;9.75;;
69280;SDS011;56392;51.082;17.080;2022-08-19T03:44:43;21.80;;;9.45;;
69280;SDS011;56392;51.082;17.080;2022-08-19T03:49:46;16.43;;;9.20;;
69280;SDS011;56392;51.082;17.080;2022-08-19T03:54:50;17.33;;;10.65;;
69280;SDS011;56392;51.082;17.080;2022-08-19T03:59:52;18.23;;;10.55;;
69280;SDS011;56392;51.082;17.080;2022-08-19T04:04:55;18.25;;;9.85;;
69280;SDS011;56392;51.082;17.080;2022-08-19T04:09:59;20.00;;;10.47;;
69280;SDS011;56392;51.082;17.080;2022-08-19T04:15:02;21.73;;;10.98;;
69280;SDS011;56392;51.082;17.080;2022-08-19T04:20:05;17.77;;;11.18;;
69280;SDS011;56392;51.082;17.080;2022-08-19T04:25:10;22.97;;;11.40;;
69280;SDS011;56392;51.082;17.080;2022-08-19T04:30:13;15.70;;;10.65;;
69280;SDS011;56392;51.082;17.080;2022-08-19T04:35:18;24.92;;;11.57;;
69280;SDS011;56392;51.082;17.080;2022-08-19T04:40:22;20.93;;;11.87;;
69280;SDS011;56392;51.082;17.080;2022-08-19T04:45:42;23.55;;;11.63;;
69280;SDS011;56392;51.082;17.080;2022-08-19T04:50:45;22.40;;;11.85;;
69280;SDS011;56392;51.082;17.080;2022-08-19T04:55:50;20.65;;;11.82;;
69280;SDS011;56392;51.082;17.080;2022-08-19T05:00:53;18.27;;;11.50;;
69280;SDS011;56392;51.082;17.080;2022-08-19T05:05:56;21.88;;;11.38;;
69280;SDS011;56392;51.082;17.080;2022-08-19T05:11:00;18.75;;;12.27;;
69280;SDS011;56392;51.082;17.080;2022-08-19T05:16:03;22.10;;;11.63;;
69280;SDS011;56392;51.082;17.080;2022-08-19T05:21:07;22.77;;;11.50;;
69280;SDS011;56392;51.082;17.080;2022-08-19T05:26:29;23.65;;;12.15;;
69280;SDS011;56392;51.082;17.080;2022-08-19T05:31:31;21.20;;;11.87;;
69280;SDS011;56392;51.082;17.080;2022-08-19T05:36:35;23.77;;;12.48;;
69280;SDS011;56392;51.082;17.080;2022-08-19T05:41:42;21.05;;;13.00;;
69280;SDS011;56392;51.082;17.080;2022-08-19T05:46:45;24.13;;;12.45;;
69280;SDS011;56392;51.082;17.080;2022-08-19T05:51:48;21.73;;;12.40;;
69280;SDS011;56392;51.082;17.080;2022-08-19T05:56:53;19.85;;;12.35;;
69280;SDS011;56392;51.082;17.080;2022-08-19T06:01:55;22.75;;;12.80;;
69280;SDS011;56392;51.082;17.080;2022-08-19T06:06:58;23.73;;;12.20;;
69280;SDS011;56392;51.082;17.080;2022-08-19T06:12:04;22.25;;;12.15;;
69280;SDS011;56392;51.082;17.080;2022-08-19T06:17:08;20.15;;;12.60;;
69280;SDS011;56392;51.082;17.080;2022-08-19T06:22:10;20.57;;;12.13;;
69280;SDS011;56392;51.082;17.080;2022-08-19T06:27:15;22.30;;;12.02;;
69280;SDS011;56392;51.082;17.080;2022-08-19T06:32:17;21.05;;;12.25;;
69280;SDS011;56392;51.082;17.080;2022-08-19T06:37:20;25.80;;;11.68;;
69280;SDS011;56392;51.082;17.080;2022-08-19T06:42:25;19.10;;;11.00;;
69280;SDS011;56392;51.082;17.080;2022-08-19T06:47:28;19.52;;;11.40;;
69280;SDS011;56392;51.082;17.080;2022-08-19T06:52:32;21.55;;;11.63;;
69280;SDS011;56392;51.082;17.080;2022-08-19T06:57:37;17.40;;;11.00;;
69280;SDS011;56392;51.082;17.080;2022-08-19T07:02:40;20.25;;;10.73;;
69280;SDS011;56392;51.082;17.080;2022-08-19T07:07:42;16.80;;;10.45;;
69280;SDS011;56392;51.082;17.080;2022-08-19T07:12:46;17.43;;;10.17;;
69280;SDS011;56392;51.082;17.080;2022-08-19T07:17:50;15.18;;;10.40;;
69280;SDS011;56392;51.082;17.080;2022-08-19T07:22:53;16.00;;;10.60;;
69280;SDS011;56392;51.082;17.080;2022-08-19T07:27:59;16.50;;;9.90;;
69280;SDS011;56392;51.082;17.080;2022-08-19T07:38:17;14.52;;;9.40;;
69280;SDS011;56392;51.082;17.080;2022-08-19T07:43:23;17.73;;;8.93;;
69280;SDS011;56392;51.082;17.080;2022-08-19T07:48:28;17.00;;;8.70;;
69280;SDS011;56392;51.082;17.080;2022-08-19T07:53:31;16.20;;;8.38;;
69280;SDS011;56392;51.082;17.080;2022-08-19T07:58:36;16.88;;;8.68;;
69280;SDS011;56392;51.082;17.080;2022-08-19T08:03:41;16.30;;;8.50;;
69280;SDS011;56392;51.082;17.080;2022-08-19T08:09:02;15.38;;;8.65;;
69280;SDS011;56392;51.082;17.080;2022-08-19T08:14:21;18.52;;;9.68;;
69280;SDS011;56392;51.082;17.080;2022-08-19T08:19:25;14.35;;;8.10;;
69280;SDS011;56392;51.082;17.080;2022-08-19T08:24:31;14.97;;;8.30;;
69280;SDS011;56392;51.082;17.080;2022-08-19T08:29:35;16.55;;;8.55;;
69280;SDS011;56392;51.082;17.080;2022-08-19T08:34:38;14.20;;;8.57;;
69280;SDS011;56392;51.082;17.080;2022-08-19T08:39:41;13.93;;;8.30;;
69280;SDS011;56392;51.082;17.080;2022-08-19T08:44:49;17.80;;;8.10;;
69280;SDS011;56392;51.082;17.080;2022-08-19T08:49:58;20.73;;;9.23;;
69280;SDS011;56392;51.082;17.080;2022-08-19T08:55:07;13.53;;;8.23;;
69280;SDS011;56392;51.082;17.080;2022-08-19T09:00:14;16.02;;;8.85;;
69280;SDS011;56392;51.082;17.080;2022-08-19T09:05:20;16.88;;;7.90;;
69280;SDS011;56392;51.082;17.080;2022-08-19T09:10:27;14.05;;;8.05;;
69280;SDS011;56392;51.082;17.080;2022-08-19T09:15:36;14.57;;;8.20;;
69280;SDS011;56392;51.082;17.080;2022-08-19T09:20:42;18.40;;;8.80;;
69280;SDS011;56392;51.082;17.080;2022-08-19T09:25:45;14.52;;;8.38;;
69280;SDS011;56392;51.082;17.080;2022-08-19T09:30:49;16.77;;;7.63;;
69280;SDS011;56392;51.082;17.080;2022-08-19T09:36:01;15.75;;;7.75;;
69280;SDS011;56392;51.082;17.080;2022-08-19T09:41:07;14.93;;;8.02;;
69280;SDS011;56392;51.082;17.080;2022-08-19T09:46:15;16.03;;;7.37;;
69280;SDS011;56392;51.082;17.080;2022-08-19T09:51:20;14.57;;;7.30;;
69280;SDS011;56392;51.082;17.080;2022-08-19T09:56:27;15.77;;;7.82;;
69280;SDS011;56392;51.082;17.080;2022-08-19T10:01:32;12.63;;;6.75;;
69280;SDS011;56392;51.082;17.080;2022-08-19T10:06:35;14.10;;;7.23;;
69280;SDS011;56392;51.082;17.080;2022-08-19T10:11:40;11.63;;;6.65;;
69280;SDS011;56392;51.082;17.080;2022-08-19T10:16:45;14.75;;;7.22;;
69280;SDS011;56392;51.082;17.080;2022-08-19T10:21:52;11.83;;;6.63;;
69280;SDS011;56392;51.082;17.080;2022-08-19T10:26:56;11.27;;;6.40;;
69280;SDS011;56392;51.082;17.080;2022-08-19T10:32:01;15.23;;;5.90;;
69280;SDS011;56392;51.082;17.080;2022-08-19T10:37:05;11.07;;;6.37;;
69280;SDS011;56392;51.082;17.080;2022-08-19T10:42:08;12.65;;;5.70;;
69280;SDS011;56392;51.082;17.080;2022-08-19T10:47:12;14.38;;;5.57;;
69280;SDS011;56392;51.082;17.080;2022-08-19T10:52:15;13.57;;;6.25;;
69280;SDS011;56392;51.082;17.080;2022-08-19T10:57:36;9.07;;;5.43;;
69280;SDS011;56392;51.082;17.080;2022-08-19T11:02:40;10.20;;;5.50;;
69280;SDS011;56392;51.082;17.080;2022-08-19T11:07:44;13.05;;;6.03;;
69280;SDS011;56392;51.082;17.080;2022-08-19T11:12:47;11.60;;;5.90;;
69280;SDS011;56392;51.082;17.080;2022-08-19T11:17:52;15.25;;;6.05;;
69280;SDS011;56392;51.082;17.080;2022-08-19T11:22:56;12.35;;;6.03;;
69280;SDS011;56392;51.082;17.080;2022-08-19T11:27:59;11.63;;;5.77;;
69280;SDS011;56392;51.082;17.080;2022-08-19T11:33:03;11.05;;;5.78;;
69280;SDS011;56392;51.082;17.080;2022-08-19T11:38:05;10.35;;;5.63;;
69280;SDS011;56392;51.082;17.080;2022-08-19T11:43:08;12.75;;;5.78;;
69280;SDS011;56392;51.082;17.080;2022-08-19T11:48:12;14.50;;;5.10;;
69280;SDS011;56392;51.082;17.080;2022-08-19T11:53:15;11.45;;;4.72;;
69280;SDS011;56392;51.082;17.080;2022-08-19T11:58:22;11.70;;;4.57;;
69280;SDS011;56392;51.082;17.080;2022-08-19T12:03:27;12.13;;;3.97;;
69280;SDS011;56392;51.082;17.080;2022-08-19T12:08:30;7.78;;;3.38;;
69280;SDS011;56392;51.082;17.080;2022-08-19T12:13:33;9.35;;;3.38;;
69280;SDS011;56392;51.082;17.080;2022-08-19T12:18:38;11.63;;;3.23;;
69280;SDS011;56392;51.082;17.080;2022-08-19T12:23:42;11.60;;;3.30;;
69280;SDS011;56392;51.082;17.080;2022-08-19T12:28:46;10.63;;;3.13;;
69280;SDS011;56392;51.082;17.080;2022-08-19T12:33:50;9.93;;;3.60;;
69280;SDS011;56392;51.082;17.080;2022-08-19T12:38:54;9.93;;;3.90;;
69280;SDS011;56392;51.082;17.080;2022-08-19T12:43:56;8.43;;;3.80;;
69280;SDS011;56392;51.082;17.080;2022-08-19T12:49:00;9.75;;;4.35;;
69280;SDS011;56392;51.082;17.080;2022-08-19T12:54:04;24.30;;;11.57;;
69280;SDS011;56392;51.082;17.080;2022-08-19T12:59:07;10.30;;;4.80;;
69280;SDS011;56392;51.082;17.080;2022-08-19T13:04:13;14.20;;;4.32;;
69280;SDS011;56392;51.082;17.080;2022-08-19T13:09:16;12.20;;;4.30;;
69280;SDS011;56392;51.082;17.080;2022-08-19T13:14:18;9.10;;;3.78;;
69280;SDS011;56392;51.082;17.080;2022-08-19T13:19:22;9.23;;;3.40;;
69280;SDS011;56392;51.082;17.080;2022-08-19T13:24:25;12.82;;;3.60;;
69280;SDS011;56392;51.082;17.080;2022-08-19T13:29:28;11.60;;;3.57;;
69280;SDS011;56392;51.082;17.080;2022-08-19T13:34:53;10.63;;;4.05;;
69280;SDS011;56392;51.082;17.080;2022-08-19T13:39:56;10.30;;;3.83;;
69280;SDS011;56392;51.082;17.080;2022-08-19T13:45:00;10.83;;;3.70;;
69280;SDS011;56392;51.082;17.080;2022-08-19T13:50:04;9.18;;;3.85;;
69280;SDS011;56392;51.082;17.080;2022-08-19T13:55:08;10.85;;;3.83;;
69280;SDS011;56392;51.082;17.080;2022-08-19T14:00:15;12.60;;;3.73;;
69280;SDS011;56392;51.082;17.080;2022-08-19T14:05:21;11.93;;;4.20;;
69280;SDS011;56392;51.082;17.080;2022-08-19T14:10:24;11.30;;;3.97;;
69280;SDS011;56392;51.082;17.080;2022-08-19T14:15:28;10.43;;;3.90;;
69280;SDS011;56392;51.082;17.080;2022-08-19T14:20:34;12.03;;;4.20;;
69280;SDS011;56392;51.082;17.080;2022-08-19T14:25:37;11.48;;;3.88;;
69280;SDS011;56392;51.082;17.080;2022-08-19T14:30:40;12.70;;;4.05;;
69280;SDS011;56392;51.082;17.080;2022-08-19T14:35:44;14.20;;;3.60;;
69280;SDS011;56392;51.082;17.080;2022-08-19T14:40:47;12.77;;;4.20;;
69280;SDS011;56392;51.082;17.080;2022-08-19T14:45:49;13.70;;;3.95;;
69280;SDS011;56392;51.082;17.080;2022-08-19T14:50:53;12.33;;;4.03;;
69280;SDS011;56392;51.082;17.080;2022-08-19T14:55:56;11.63;;;4.10;;
69280;SDS011;56392;51.082;17.080;2022-08-19T15:00:59;14.35;;;4.70;;
69280;SDS011;56392;51.082;17.080;2022-08-19T15:06:04;13.50;;;4.40;;
69280;SDS011;56392;51.082;17.080;2022-08-19T15:11:07;13.03;;;4.63;;
69280;SDS011;56392;51.082;17.080;2022-08-19T15:16:11;9.05;;;4.68;;
69280;SDS011;56392;51.082;17.080;2022-08-19T15:21:16;14.90;;;6.93;;
69280;SDS011;56392;51.082;17.080;2022-08-19T15:26:19;21.83;;;8.20;;
69280;SDS011;56392;51.082;17.080;2022-08-19T15:31:22;13.73;;;6.20;;
69280;SDS011;56392;51.082;17.080;2022-08-19T15:36:26;16.95;;;7.63;;
69280;SDS011;56392;51.082;17.080;2022-08-19T15:41:30;11.93;;;7.20;;
69280;SDS011;56392;51.082;17.080;2022-08-19T15:46:37;13.15;;;7.90;;
69280;SDS011;56392;51.082;17.080;2022-08-19T15:51:43;11.90;;;8.00;;
69280;SDS011;56392;51.082;17.080;2022-08-19T15:56:48;13.38;;;8.85;;
69280;SDS011;56392;51.082;17.080;2022-08-19T16:02:08;15.40;;;9.40;;
69280;SDS011;56392;51.082;17.080;2022-08-19T16:07:30;21.08;;;9.57;;
69280;SDS011;56392;51.082;17.080;2022-08-19T16:12:33;18.52;;;10.40;;
69280;SDS011;56392;51.082;17.080;2022-08-19T16:17:35;16.17;;;11.23;;
69280;SDS011;56392;51.082;17.080;2022-08-19T16:22:39;21.60;;;11.88;;
69280;SDS011;56392;51.082;17.080;2022-08-19T16:27:42;20.45;;;12.60;;
69280;SDS011;56392;51.082;17.080;2022-08-19T16:32:45;20.23;;;11.80;;
69280;SDS011;56392;51.082;17.080;2022-08-19T16:37:50;17.85;;;13.18;;
69280;SDS011;56392;51.082;17.080;2022-08-19T16:42:53;21.30;;;13.10;;
69280;SDS011;56392;51.082;17.080;2022-08-19T16:47:56;24.05;;;13.02;;
69280;SDS011;56392;51.082;17.080;2022-08-19T16:53:00;20.13;;;12.73;;
69280;SDS011;56392;51.082;17.080;2022-08-19T16:58:03;20.17;;;12.82;;
69280;SDS011;56392;51.082;17.080;2022-08-19T17:03:06;17.35;;;12.90;;
69280;SDS011;56392;51.082;17.080;2022-08-19T17:08:11;19.40;;;12.77;;
69280;SDS011;56392;51.082;17.080;2022-08-19T17:13:15;22.67;;;13.25;;
69280;SDS011;56392;51.082;17.080;2022-08-19T17:18:18;20.25;;;14.18;;
69280;SDS011;56392;51.082;17.080;2022-08-19T17:23:23;20.63;;;13.67;;
69280;SDS011;56392;51.082;17.080;2022-08-19T17:28:27;19.58;;;13.75;;
69280;SDS011;56392;51.082;17.080;2022-08-19T17:33:31;18.63;;;13.23;;
69280;SDS011;56392;51.082;17.080;2022-08-19T17:38:35;28.13;;;14.00;;
69280;SDS011;56392;51.082;17.080;2022-08-19T17:43:38;18.87;;;14.20;;
69280;SDS011;56392;51.082;17.080;2022-08-19T17:48:45;22.40;;;14.40;;
69280;SDS011;56392;51.082;17.080;2022-08-19T17:53:53;21.40;;;14.95;;
69280;SDS011;56392;51.082;17.080;2022-08-19T17:58:56;22.00;;;14.00;;
69280;SDS011;56392;51.082;17.080;2022-08-19T18:03:59;22.17;;;15.10;;
69280;SDS011;56392;51.082;17.080;2022-08-19T18:09:08;19.65;;;14.15;;
69280;SDS011;56392;51.082;17.080;2022-08-19T18:14:12;22.67;;;14.00;;
69280;SDS011;56392;51.082;17.080;2022-08-19T18:19:16;19.98;;;13.23;;
69280;SDS011;56392;51.082;17.080;2022-08-19T18:24:20;18.88;;;13.55;;
69280;SDS011;56392;51.082;17.080;2022-08-19T18:29:24;19.33;;;12.73;;
69280;SDS011;56392;51.082;17.080;2022-08-19T18:34:26;20.07;;;13.20;;
69280;SDS011;56392;51.082;17.080;2022-08-19T18:39:33;17.70;;;12.93;;
69280;SDS011;56392;51.082;17.080;2022-08-19T18:44:56;18.13;;;13.15;;
69280;SDS011;56392;51.082;17.080;2022-08-19T18:50:20;21.63;;;14.20;;
69280;SDS011;56392;51.082;17.080;2022-08-19T18:55:39;22.13;;;15.25;;
69280;SDS011;56392;51.082;17.080;2022-08-19T19:00:54;19.88;;;15.13;;
69280;SDS011;56392;51.082;17.080;2022-08-19T19:05:57;28.57;;;15.60;;
69280;SDS011;56392;51.082;17.080;2022-08-19T19:11:03;22.20;;;15.60;;
69280;SDS011;56392;51.082;17.080;2022-08-19T19:16:06;24.70;;;15.98;;
69280;SDS011;56392;51.082;17.080;2022-08-19T19:21:11;20.90;;;15.68;;
69280;SDS011;56392;51.082;17.080;2022-08-19T19:26:16;26.87;;;16.23;;
69280;SDS011;56392;51.082;17.080;2022-08-19T19:31:19;21.60;;;15.07;;
69280;SDS011;56392;51.082;17.080;2022-08-19T19:36:27;26.52;;;16.42;;
69280;SDS011;56392;51.082;17.080;2022-08-19T19:41:32;22.70;;;15.40;;
69280;SDS011;56392;51.082;17.080;2022-08-19T19:46:37;20.35;;;11.73;;
69280;SDS011;56392;51.082;17.080;2022-08-19T19:51:42;17.25;;;10.20;;
69280;SDS011;56392;51.082;17.080;2022-08-19T19:56:47;17.83;;;8.73;;
69280;SDS011;56392;51.082;17.080;2022-08-19T20:01:50;18.13;;;8.25;;
69280;SDS011;56392;51.082;17.080;2022-08-19T20:06:52;17.15;;;7.70;;
69280;SDS011;56392;51.082;17.080;2022-08-19T20:11:56;16.70;;;7.85;;
69280;SDS011;56392;51.082;17.080;2022-08-19T20:17:00;19.27;;;7.40;;
69280;SDS011;56392;51.082;17.080;2022-08-19T20:22:06;18.27;;;7.13;;
69280;SDS011;56392;51.082;17.080;2022-08-19T20:27:10;17.60;;;7.13;;
69280;SDS011;56392;51.082;17.080;2022-08-19T20:32:12;14.03;;;7.27;;
69280;SDS011;56392;51.082;17.080;2022-08-19T20:37:15;15.20;;;7.60;;
69280;SDS011;56392;51.082;17.080;2022-08-19T20:42:19;14.77;;;7.57;;
69280;SDS011;56392;51.082;17.080;2022-08-19T20:47:22;18.33;;;8.07;;
69280;SDS011;56392;51.082;17.080;2022-08-19T20:52:25;19.90;;;8.40;;
69280;SDS011;56392;51.082;17.080;2022-08-19T20:57:29;14.65;;;7.55;;
69280;SDS011;56392;51.082;17.080;2022-08-19T21:02:31;18.63;;;7.78;;
69280;SDS011;56392;51.082;17.080;2022-08-19T21:07:34;15.27;;;7.07;;
69280;SDS011;56392;51.082;17.080;2022-08-19T21:12:38;17.45;;;7.60;;
69280;SDS011;56392;51.082;17.080;2022-08-19T21:17:43;14.88;;;7.45;;
69280;SDS011;56392;51.082;17.080;2022-08-19T21:22:48;13.50;;;7.23;;
69280;SDS011;56392;51.082;17.080;2022-08-19T21:27:52;17.80;;;7.95;;
69280;SDS011;56392;51.082;17.080;2022-08-19T21:32:55;14.60;;;7.50;;
69280;SDS011;56392;51.082;17.080;2022-08-19T21:37:58;17.13;;;8.00;;
69280;SDS011;56392;51.082;17.080;2022-08-19T21:43:03;16.67;;;7.82;;
69280;SDS011;56392;51.082;17.080;2022-08-19T21:48:06;14.70;;;7.88;;
69280;SDS011;56392;51.082;17.080;2022-08-19T21:53:09;14.50;;;7.90;;
69280;SDS011;56392;51.082;17.080;2022-08-19T21:58:13;15.97;;;7.57;;
69280;SDS011;56392;51.082;17.080;2022-08-19T22:03:16;14.20;;;7.70;;
69280;SDS011;56392;51.082;17.080;2022-08-19T22:08:19;21.30;;;7.53;;
69280;SDS011;56392;51.082;17.080;2022-08-19T22:13:23;13.90;;;7.37;;
69280;SDS011;56392;51.082;17.080;2022-08-19T22:18:26;17.85;;;7.88;;
69280;SDS011;56392;51.082;17.080;2022-08-19T22:23:28;16.05;;;7.40;;
69280;SDS011;56392;51.082;17.080;2022-08-19T22:28:32;17.17;;;7.10;;
69280;SDS011;56392;51.082;17.080;2022-08-19T22:33:35;14.68;;;7.97;;
69280;SDS011;56392;51.082;17.080;2022-08-19T22:38:38;15.45;;;7.47;;
69280;SDS011;56392;51.082;17.080;2022-08-19T22:43:42;14.85;;;7.63;;
69280;SDS011;56392;51.082;17.080;2022-08-19T22:48:46;16.87;;;7.87;;
69280;SDS011;56392;51.082;17.080;2022-08-19T22:53:49;15.98;;;7.93;;
69280;SDS011;56392;51.082;17.080;2022-08-19T22:58:53;13.10;;;7.65;;
69280;SDS011;56392;51.082;17.080;2022-08-19T23:03:56;17.03;;;8.13;;
69280;SDS011;56392;51.082;17.080;2022-08-19T23:08:59;14.57;;;8.10;;
69280;SDS011;56392;51.082;17.080;2022-08-19T23:14:03;14.88;;;7.95;;
69280;SDS011;56392;51.082;17.080;2022-08-19T23:19:07;17.77;;;8.00;;
69280;SDS011;56392;51.082;17.080;2022-08-19T23:24:11;14.30;;;8.07;;
69280;SDS011;56392;51.082;17.080;2022-08-19T23:29:15;15.43;;;8.00;;
69280;SDS011;56392;51.082;17.080;2022-08-19T23:34:35;16.63;;;7.78;;
69280;SDS011;56392;51.082;17.080;2022-08-19T23:39:38;18.83;;;8.43;;
69280;SDS011;56392;51.082;17.080;2022-08-19T23:44:44;19.80;;;8.30;;
69280;SDS011;56392;51.082;17.080;2022-08-19T23:49:47;17.27;;;8.30;;
69280;SDS011;56392;51.082;17.080;2022-08-19T23:54:49;15.70;;;8.07;;
69280;SDS011;56392;51.082;17.080;2022-08-19T23:59:53;19.30;;;7.85;;
